sensor_id;sensor_type;location;lat;lon;timestamp;P1;durP1;ratioP1;P2;durP2;ratioP2
13477;SDS011;12598;62.382;17.344;2023-05-02T00:00:05;3.58;;;1.38;;
13477;SDS011;12598;62.382;17.344;2023-05-02T00:01:07;2.20;;;1.15;;
13477;SDS011;12598;62.382;17.344;2023-05-02T00:02:09;1.60;;;1.23;;
13477;SDS011;12598;62.382;17.344;2023-05-02T00:03:11;1.60;;;1.30;;
13477;SDS011;12598;62.382;17.344;2023-05-02T00:04:14;1.33;;;1.10;;
13477;SDS011;12598;62.382;17.344;2023-05-02T00:05:16;3.20;;;1.40;;
13477;SDS011;12598;62.382;17.344;2023-05-02T00:06:18;1.65;;;1.17;;
13477;SDS011;12598;62.382;17.344;2023-05-02T00:07:20;1.83;;;1.20;;
13477;SDS011;12598;62.382;17.344;2023-05-02T00:08:21;2.92;;;1.20;;
13477;SDS011;12598;62.382;17.344;2023-05-02T00:09:23;2.45;;;1.38;;
13477;SDS011;12598;62.382;17.344;2023-05-02T00:10:26;1.77;;;1.27;;
13477;SDS011;12598;62.382;17.344;2023-05-02T00:11:28;2.92;;;1.35;;
13477;SDS011;12598;62.382;17.344;2023-05-02T00:12:29;2.22;;;1.38;;
13477;SDS011;12598;62.382;17.344;2023-05-02T00:13:31;1.60;;;1.30;;
13477;SDS011;12598;62.382;17.344;2023-05-02T00:14:33;1.63;;;1.27;;
13477;SDS011;12598;62.382;17.344;2023-05-02T00:15:35;1.27;;;1.05;;
13477;SDS011;12598;62.382;17.344;2023-05-02T00:16:37;1.35;;;1.10;;
13477;SDS011;12598;62.382;17.344;2023-05-02T00:17:39;3.03;;;1.25;;
13477;SDS011;12598;62.382;17.344;2023-05-02T00:18:44;1.92;;;1.08;;
13477;SDS011;12598;62.382;17.344;2023-05-02T00:19:46;3.20;;;1.23;;
13477;SDS011;12598;62.382;17.344;2023-05-02T00:20:48;1.70;;;1.10;;
13477;SDS011;12598;62.382;17.344;2023-05-02T00:21:51;1.48;;;0.80;;
13477;SDS011;12598;62.382;17.344;2023-05-02T00:22:54;1.52;;;1.08;;
13477;SDS011;12598;62.382;17.344;2023-05-02T00:23:57;1.73;;;1.00;;
13477;SDS011;12598;62.382;17.344;2023-05-02T00:24:59;1.50;;;1.00;;
13477;SDS011;12598;62.382;17.344;2023-05-02T00:26:01;1.77;;;0.85;;
13477;SDS011;12598;62.382;17.344;2023-05-02T00:27:03;1.80;;;1.20;;
13477;SDS011;12598;62.382;17.344;2023-05-02T00:28:06;1.83;;;1.20;;
13477;SDS011;12598;62.382;17.344;2023-05-02T00:29:08;1.63;;;1.00;;
13477;SDS011;12598;62.382;17.344;2023-05-02T00:30:10;2.20;;;1.20;;
13477;SDS011;12598;62.382;17.344;2023-05-02T00:31:12;1.45;;;1.10;;
13477;SDS011;12598;62.382;17.344;2023-05-02T00:32:14;1.55;;;1.00;;
13477;SDS011;12598;62.382;17.344;2023-05-02T00:33:16;1.20;;;0.80;;
13477;SDS011;12598;62.382;17.344;2023-05-02T00:34:18;1.63;;;1.08;;
13477;SDS011;12598;62.382;17.344;2023-05-02T00:35:20;2.10;;;0.93;;
13477;SDS011;12598;62.382;17.344;2023-05-02T00:36:21;1.10;;;1.00;;
13477;SDS011;12598;62.382;17.344;2023-05-02T00:37:25;0.95;;;0.55;;
13477;SDS011;12598;62.382;17.344;2023-05-02T00:38:28;1.00;;;0.70;;
13477;SDS011;12598;62.382;17.344;2023-05-02T00:39:30;1.60;;;0.70;;
13477;SDS011;12598;62.382;17.344;2023-05-02T00:40:44;1.52;;;0.98;;
13477;SDS011;12598;62.382;17.344;2023-05-02T00:41:48;1.00;;;0.80;;
13477;SDS011;12598;62.382;17.344;2023-05-02T00:42:50;1.27;;;0.70;;
13477;SDS011;12598;62.382;17.344;2023-05-02T00:43:52;2.17;;;1.05;;
13477;SDS011;12598;62.382;17.344;2023-05-02T00:44:54;1.60;;;0.90;;
13477;SDS011;12598;62.382;17.344;2023-05-02T00:45:56;1.15;;;0.95;;
13477;SDS011;12598;62.382;17.344;2023-05-02T00:46:59;0.90;;;0.70;;
13477;SDS011;12598;62.382;17.344;2023-05-02T00:48:02;0.85;;;0.60;;
13477;SDS011;12598;62.382;17.344;2023-05-02T00:49:04;1.27;;;0.80;;
13477;SDS011;12598;62.382;17.344;2023-05-02T00:50:06;1.00;;;0.80;;
13477;SDS011;12598;62.382;17.344;2023-05-02T00:51:08;1.38;;;0.73;;
13477;SDS011;12598;62.382;17.344;2023-05-02T00:52:12;0.82;;;0.65;;
13477;SDS011;12598;62.382;17.344;2023-05-02T00:53:14;1.40;;;0.63;;
13477;SDS011;12598;62.382;17.344;2023-05-02T00:54:16;0.82;;;0.70;;
13477;SDS011;12598;62.382;17.344;2023-05-02T00:55:18;1.92;;;0.70;;
13477;SDS011;12598;62.382;17.344;2023-05-02T00:56:20;1.10;;;0.88;;
13477;SDS011;12598;62.382;17.344;2023-05-02T00:57:22;2.00;;;0.90;;
13477;SDS011;12598;62.382;17.344;2023-05-02T00:58:24;1.75;;;0.90;;
13477;SDS011;12598;62.382;17.344;2023-05-02T00:59:27;1.02;;;0.77;;
13477;SDS011;12598;62.382;17.344;2023-05-02T01:00:31;1.10;;;0.80;;
13477;SDS011;12598;62.382;17.344;2023-05-02T01:03:09;1.83;;;0.70;;
13477;SDS011;12598;62.382;17.344;2023-05-02T01:06:00;0.60;;;0.60;;
13477;SDS011;12598;62.382;17.344;2023-05-02T01:07:41;1.85;;;0.70;;
13477;SDS011;12598;62.382;17.344;2023-05-02T01:08:59;1.13;;;0.75;;
13477;SDS011;12598;62.382;17.344;2023-05-02T01:10:37;1.88;;;0.70;;
13477;SDS011;12598;62.382;17.344;2023-05-02T01:11:47;1.10;;;0.80;;
13477;SDS011;12598;62.382;17.344;2023-05-02T01:14:11;1.48;;;0.77;;
13477;SDS011;12598;62.382;17.344;2023-05-02T01:15:16;1.17;;;0.75;;
13477;SDS011;12598;62.382;17.344;2023-05-02T01:16:21;1.35;;;0.90;;
13477;SDS011;12598;62.382;17.344;2023-05-02T01:17:26;1.42;;;0.90;;
13477;SDS011;12598;62.382;17.344;2023-05-02T01:18:34;0.93;;;0.43;;
13477;SDS011;12598;62.382;17.344;2023-05-02T01:19:40;0.57;;;0.47;;
13477;SDS011;12598;62.382;17.344;2023-05-02T01:20:45;1.38;;;0.73;;
13477;SDS011;12598;62.382;17.344;2023-05-02T01:21:52;1.52;;;0.60;;
13477;SDS011;12598;62.382;17.344;2023-05-02T01:22:57;1.67;;;0.50;;
13477;SDS011;12598;62.382;17.344;2023-05-02T01:24:10;0.65;;;0.60;;
13477;SDS011;12598;62.382;17.344;2023-05-02T01:29:21;0.80;;;0.60;;
13477;SDS011;12598;62.382;17.344;2023-05-02T01:30:25;0.80;;;0.52;;
13477;SDS011;12598;62.382;17.344;2023-05-02T01:31:30;1.20;;;0.68;;
13477;SDS011;12598;62.382;17.344;2023-05-02T01:32:35;0.98;;;0.70;;
13477;SDS011;12598;62.382;17.344;2023-05-02T01:33:40;0.77;;;0.50;;
13477;SDS011;12598;62.382;17.344;2023-05-02T01:34:45;1.35;;;0.68;;
13477;SDS011;12598;62.382;17.344;2023-05-02T01:35:49;0.55;;;0.40;;
13477;SDS011;12598;62.382;17.344;2023-05-02T01:36:53;0.88;;;0.60;;
13477;SDS011;12598;62.382;17.344;2023-05-02T01:37:56;1.85;;;0.73;;
13477;SDS011;12598;62.382;17.344;2023-05-02T01:39:00;0.80;;;0.80;;
13477;SDS011;12598;62.382;17.344;2023-05-02T01:40:05;0.88;;;0.55;;
13477;SDS011;12598;62.382;17.344;2023-05-02T01:41:09;1.10;;;0.60;;
13477;SDS011;12598;62.382;17.344;2023-05-02T01:42:13;1.45;;;0.73;;
13477;SDS011;12598;62.382;17.344;2023-05-02T01:43:18;1.10;;;0.50;;
13477;SDS011;12598;62.382;17.344;2023-05-02T01:44:22;0.77;;;0.63;;
13477;SDS011;12598;62.382;17.344;2023-05-02T01:45:25;0.85;;;0.63;;
13477;SDS011;12598;62.382;17.344;2023-05-02T01:46:30;0.93;;;0.50;;
13477;SDS011;12598;62.382;17.344;2023-05-02T01:47:35;0.60;;;0.40;;
13477;SDS011;12598;62.382;17.344;2023-05-02T01:48:40;1.05;;;0.70;;
13477;SDS011;12598;62.382;17.344;2023-05-02T01:49:45;0.75;;;0.55;;
13477;SDS011;12598;62.382;17.344;2023-05-02T01:50:47;1.25;;;0.60;;
13477;SDS011;12598;62.382;17.344;2023-05-02T01:51:51;2.38;;;0.63;;
13477;SDS011;12598;62.382;17.344;2023-05-02T01:52:53;1.25;;;0.70;;
13477;SDS011;12598;62.382;17.344;2023-05-02T01:53:57;0.57;;;0.50;;
13477;SDS011;12598;62.382;17.344;2023-05-02T01:55:01;1.38;;;0.77;;
13477;SDS011;12598;62.382;17.344;2023-05-02T01:56:07;1.20;;;0.50;;
13477;SDS011;12598;62.382;17.344;2023-05-02T01:57:09;0.75;;;0.50;;
13477;SDS011;12598;62.382;17.344;2023-05-02T01:58:13;0.73;;;0.47;;
13477;SDS011;12598;62.382;17.344;2023-05-02T01:59:18;0.70;;;0.57;;
13477;SDS011;12598;62.382;17.344;2023-05-02T02:00:23;0.82;;;0.50;;
13477;SDS011;12598;62.382;17.344;2023-05-02T02:01:26;0.95;;;0.30;;
13477;SDS011;12598;62.382;17.344;2023-05-02T02:02:31;0.93;;;0.60;;
13477;SDS011;12598;62.382;17.344;2023-05-02T02:03:35;0.52;;;0.50;;
13477;SDS011;12598;62.382;17.344;2023-05-02T02:04:37;0.70;;;0.45;;
13477;SDS011;12598;62.382;17.344;2023-05-02T02:05:43;1.17;;;0.88;;
13477;SDS011;12598;62.382;17.344;2023-05-02T02:06:49;1.60;;;0.60;;
13477;SDS011;12598;62.382;17.344;2023-05-02T02:07:56;1.20;;;0.47;;
13477;SDS011;12598;62.382;17.344;2023-05-02T02:08:59;1.20;;;0.60;;
13477;SDS011;12598;62.382;17.344;2023-05-02T02:10:02;0.85;;;0.40;;
13477;SDS011;12598;62.382;17.344;2023-05-02T02:11:06;1.30;;;0.50;;
13477;SDS011;12598;62.382;17.344;2023-05-02T02:12:11;2.20;;;0.40;;
13477;SDS011;12598;62.382;17.344;2023-05-02T02:13:18;0.60;;;0.45;;
13477;SDS011;12598;62.382;17.344;2023-05-02T02:14:39;0.70;;;0.50;;
13477;SDS011;12598;62.382;17.344;2023-05-02T02:15:47;1.08;;;0.47;;
13477;SDS011;12598;62.382;17.344;2023-05-02T02:16:52;1.75;;;0.52;;
13477;SDS011;12598;62.382;17.344;2023-05-02T02:18:00;0.85;;;0.50;;
13477;SDS011;12598;62.382;17.344;2023-05-02T02:19:06;0.70;;;0.40;;
13477;SDS011;12598;62.382;17.344;2023-05-02T02:20:10;1.15;;;0.60;;
13477;SDS011;12598;62.382;17.344;2023-05-02T02:21:16;0.60;;;0.32;;
13477;SDS011;12598;62.382;17.344;2023-05-02T02:22:21;0.68;;;0.50;;
13477;SDS011;12598;62.382;17.344;2023-05-02T02:23:27;0.73;;;0.50;;
13477;SDS011;12598;62.382;17.344;2023-05-02T02:24:30;0.85;;;0.40;;
13477;SDS011;12598;62.382;17.344;2023-05-02T02:25:34;0.85;;;0.50;;
13477;SDS011;12598;62.382;17.344;2023-05-02T02:26:36;1.33;;;0.40;;
13477;SDS011;12598;62.382;17.344;2023-05-02T02:27:39;1.02;;;0.50;;
13477;SDS011;12598;62.382;17.344;2023-05-02T02:28:41;1.38;;;0.40;;
13477;SDS011;12598;62.382;17.344;2023-05-02T02:29:44;0.70;;;0.40;;
13477;SDS011;12598;62.382;17.344;2023-05-02T02:30:46;0.88;;;0.40;;
13477;SDS011;12598;62.382;17.344;2023-05-02T02:31:48;0.47;;;0.40;;
13477;SDS011;12598;62.382;17.344;2023-05-02T02:32:50;2.15;;;0.60;;
13477;SDS011;12598;62.382;17.344;2023-05-02T02:33:52;0.93;;;0.45;;
13477;SDS011;12598;62.382;17.344;2023-05-02T02:34:53;0.65;;;0.40;;
13477;SDS011;12598;62.382;17.344;2023-05-02T02:36:07;1.40;;;0.55;;
13477;SDS011;12598;62.382;17.344;2023-05-02T02:37:28;0.90;;;0.50;;
13477;SDS011;12598;62.382;17.344;2023-05-02T02:38:46;0.90;;;0.52;;
13477;SDS011;12598;62.382;17.344;2023-05-02T02:41:26;0.55;;;0.50;;
13477;SDS011;12598;62.382;17.344;2023-05-02T02:42:38;0.55;;;0.20;;
13477;SDS011;12598;62.382;17.344;2023-05-02T02:44:04;1.02;;;0.40;;
13477;SDS011;12598;62.382;17.344;2023-05-02T02:46:31;1.75;;;0.60;;
13477;SDS011;12598;62.382;17.344;2023-05-02T02:47:50;1.80;;;0.52;;
13477;SDS011;12598;62.382;17.344;2023-05-02T02:51:20;0.80;;;0.50;;
13477;SDS011;12598;62.382;17.344;2023-05-02T02:52:13;1.15;;;0.35;;
13477;SDS011;12598;62.382;17.344;2023-05-02T02:53:24;2.63;;;0.50;;
13477;SDS011;12598;62.382;17.344;2023-05-02T02:54:33;0.68;;;0.47;;
13477;SDS011;12598;62.382;17.344;2023-05-02T02:55:51;0.65;;;0.22;;
13477;SDS011;12598;62.382;17.344;2023-05-02T02:57:00;1.40;;;0.40;;
13477;SDS011;12598;62.382;17.344;2023-05-02T02:59:34;1.10;;;0.50;;
13477;SDS011;12598;62.382;17.344;2023-05-02T03:00:41;1.15;;;0.47;;
13477;SDS011;12598;62.382;17.344;2023-05-02T03:01:45;0.75;;;0.43;;
13477;SDS011;12598;62.382;17.344;2023-05-02T03:02:56;1.00;;;0.45;;
13477;SDS011;12598;62.382;17.344;2023-05-02T03:03:58;0.70;;;0.50;;
13477;SDS011;12598;62.382;17.344;2023-05-02T03:05:03;0.57;;;0.30;;
13477;SDS011;12598;62.382;17.344;2023-05-02T03:06:07;0.73;;;0.38;;
13477;SDS011;12598;62.382;17.344;2023-05-02T03:07:09;0.70;;;0.32;;
13477;SDS011;12598;62.382;17.344;2023-05-02T03:08:11;0.70;;;0.38;;
13477;SDS011;12598;62.382;17.344;2023-05-02T03:09:14;0.70;;;0.50;;
13477;SDS011;12598;62.382;17.344;2023-05-02T03:10:22;0.85;;;0.55;;
13477;SDS011;12598;62.382;17.344;2023-05-02T03:11:24;2.10;;;0.55;;
13477;SDS011;12598;62.382;17.344;2023-05-02T03:12:28;0.82;;;0.30;;
13477;SDS011;12598;62.382;17.344;2023-05-02T03:13:30;1.60;;;0.43;;
13477;SDS011;12598;62.382;17.344;2023-05-02T03:14:32;1.20;;;0.82;;
13477;SDS011;12598;62.382;17.344;2023-05-02T03:16:56;0.60;;;0.30;;
13477;SDS011;12598;62.382;17.344;2023-05-02T03:17:58;0.77;;;0.45;;
13477;SDS011;12598;62.382;17.344;2023-05-02T03:19:00;0.82;;;0.50;;
13477;SDS011;12598;62.382;17.344;2023-05-02T03:20:03;1.15;;;0.70;;
13477;SDS011;12598;62.382;17.344;2023-05-02T03:21:06;0.45;;;0.30;;
13477;SDS011;12598;62.382;17.344;2023-05-02T03:22:08;2.20;;;0.45;;
13477;SDS011;12598;62.382;17.344;2023-05-02T03:23:10;2.25;;;0.50;;
13477;SDS011;12598;62.382;17.344;2023-05-02T03:24:13;1.55;;;0.63;;
13477;SDS011;12598;62.382;17.344;2023-05-02T03:25:19;0.65;;;0.40;;
13477;SDS011;12598;62.382;17.344;2023-05-02T03:26:23;1.33;;;0.50;;
13477;SDS011;12598;62.382;17.344;2023-05-02T03:27:25;1.48;;;0.52;;
13477;SDS011;12598;62.382;17.344;2023-05-02T03:28:28;0.60;;;0.45;;
13477;SDS011;12598;62.382;17.344;2023-05-02T03:29:32;1.13;;;0.47;;
13477;SDS011;12598;62.382;17.344;2023-05-02T03:30:33;0.70;;;0.45;;
13477;SDS011;12598;62.382;17.344;2023-05-02T03:31:35;0.85;;;0.32;;
13477;SDS011;12598;62.382;17.344;2023-05-02T03:32:38;3.53;;;0.60;;
13477;SDS011;12598;62.382;17.344;2023-05-02T03:33:40;1.13;;;0.30;;
13477;SDS011;12598;62.382;17.344;2023-05-02T03:34:42;0.77;;;0.38;;
13477;SDS011;12598;62.382;17.344;2023-05-02T03:35:44;0.55;;;0.30;;
13477;SDS011;12598;62.382;17.344;2023-05-02T03:36:47;1.13;;;0.40;;
13477;SDS011;12598;62.382;17.344;2023-05-02T03:37:49;1.30;;;0.55;;
13477;SDS011;12598;62.382;17.344;2023-05-02T03:38:51;0.85;;;0.40;;
13477;SDS011;12598;62.382;17.344;2023-05-02T03:39:54;0.95;;;0.57;;
13477;SDS011;12598;62.382;17.344;2023-05-02T03:40:56;2.58;;;0.50;;
13477;SDS011;12598;62.382;17.344;2023-05-02T03:41:59;0.65;;;0.50;;
13477;SDS011;12598;62.382;17.344;2023-05-02T03:43:02;0.98;;;0.50;;
13477;SDS011;12598;62.382;17.344;2023-05-02T03:44:06;1.17;;;0.47;;
13477;SDS011;12598;62.382;17.344;2023-05-02T03:45:08;1.85;;;0.40;;
13477;SDS011;12598;62.382;17.344;2023-05-02T03:46:10;1.15;;;0.50;;
13477;SDS011;12598;62.382;17.344;2023-05-02T03:47:17;0.30;;;0.25;;
13477;SDS011;12598;62.382;17.344;2023-05-02T03:48:18;2.00;;;0.38;;
13477;SDS011;12598;62.382;17.344;2023-05-02T03:49:20;1.27;;;0.35;;
13477;SDS011;12598;62.382;17.344;2023-05-02T03:50:25;1.75;;;0.40;;
13477;SDS011;12598;62.382;17.344;2023-05-02T03:51:27;0.93;;;0.50;;
13477;SDS011;12598;62.382;17.344;2023-05-02T03:52:32;1.10;;;0.40;;
13477;SDS011;12598;62.382;17.344;2023-05-02T03:53:34;0.63;;;0.30;;
13477;SDS011;12598;62.382;17.344;2023-05-02T03:54:37;1.10;;;0.35;;
13477;SDS011;12598;62.382;17.344;2023-05-02T03:55:39;0.60;;;0.35;;
13477;SDS011;12598;62.382;17.344;2023-05-02T03:56:43;0.63;;;0.40;;
13477;SDS011;12598;62.382;17.344;2023-05-02T03:57:55;1.23;;;0.57;;
13477;SDS011;12598;62.382;17.344;2023-05-02T03:58:57;1.17;;;0.40;;
13477;SDS011;12598;62.382;17.344;2023-05-02T04:00:00;2.97;;;0.63;;
13477;SDS011;12598;62.382;17.344;2023-05-02T04:01:15;3.08;;;0.57;;
13477;SDS011;12598;62.382;17.344;2023-05-02T04:02:20;2.22;;;0.60;;
13477;SDS011;12598;62.382;17.344;2023-05-02T04:03:23;3.10;;;0.60;;
13477;SDS011;12598;62.382;17.344;2023-05-02T04:04:26;1.05;;;0.65;;
13477;SDS011;12598;62.382;17.344;2023-05-02T04:05:28;1.25;;;0.40;;
13477;SDS011;12598;62.382;17.344;2023-05-02T04:06:31;0.60;;;0.38;;
13477;SDS011;12598;62.382;17.344;2023-05-02T04:07:37;0.73;;;0.30;;
13477;SDS011;12598;62.382;17.344;2023-05-02T04:08:40;1.08;;;0.57;;
13477;SDS011;12598;62.382;17.344;2023-05-02T04:09:42;2.40;;;0.55;;
13477;SDS011;12598;62.382;17.344;2023-05-02T04:10:45;1.05;;;0.38;;
13477;SDS011;12598;62.382;17.344;2023-05-02T04:11:48;1.02;;;0.40;;
13477;SDS011;12598;62.382;17.344;2023-05-02T04:12:50;0.80;;;0.50;;
13477;SDS011;12598;62.382;17.344;2023-05-02T04:13:52;0.77;;;0.57;;
13477;SDS011;12598;62.382;17.344;2023-05-02T04:14:54;2.55;;;0.65;;
13477;SDS011;12598;62.382;17.344;2023-05-02T04:16:00;1.00;;;0.40;;
13477;SDS011;12598;62.382;17.344;2023-05-02T04:17:06;1.05;;;0.30;;
13477;SDS011;12598;62.382;17.344;2023-05-02T04:18:15;2.88;;;0.60;;
13477;SDS011;12598;62.382;17.344;2023-05-02T04:19:17;1.75;;;0.40;;
13477;SDS011;12598;62.382;17.344;2023-05-02T04:20:20;1.20;;;0.60;;
13477;SDS011;12598;62.382;17.344;2023-05-02T04:21:24;2.33;;;0.60;;
13477;SDS011;12598;62.382;17.344;2023-05-02T04:22:26;1.00;;;0.30;;
13477;SDS011;12598;62.382;17.344;2023-05-02T04:23:35;1.05;;;0.43;;
13477;SDS011;12598;62.382;17.344;2023-05-02T04:24:38;0.52;;;0.40;;
13477;SDS011;12598;62.382;17.344;2023-05-02T04:25:39;1.13;;;0.40;;
13477;SDS011;12598;62.382;17.344;2023-05-02T04:26:41;2.88;;;0.40;;
13477;SDS011;12598;62.382;17.344;2023-05-02T04:27:45;0.80;;;0.30;;
13477;SDS011;12598;62.382;17.344;2023-05-02T04:28:50;2.28;;;0.63;;
13477;SDS011;12598;62.382;17.344;2023-05-02T04:29:52;1.02;;;0.40;;
13477;SDS011;12598;62.382;17.344;2023-05-02T04:30:55;1.73;;;0.50;;
13477;SDS011;12598;62.382;17.344;2023-05-02T04:31:58;1.77;;;0.40;;
13477;SDS011;12598;62.382;17.344;2023-05-02T04:33:02;0.80;;;0.32;;
13477;SDS011;12598;62.382;17.344;2023-05-02T04:34:08;0.88;;;0.60;;
13477;SDS011;12598;62.382;17.344;2023-05-02T04:35:15;3.85;;;0.82;;
13477;SDS011;12598;62.382;17.344;2023-05-02T04:36:18;3.05;;;0.50;;
13477;SDS011;12598;62.382;17.344;2023-05-02T04:37:20;0.93;;;0.40;;
13477;SDS011;12598;62.382;17.344;2023-05-02T04:38:23;2.35;;;0.57;;
13477;SDS011;12598;62.382;17.344;2023-05-02T04:39:25;2.28;;;0.50;;
13477;SDS011;12598;62.382;17.344;2023-05-02T04:40:34;1.55;;;0.60;;
13477;SDS011;12598;62.382;17.344;2023-05-02T04:41:39;2.17;;;0.50;;
13477;SDS011;12598;62.382;17.344;2023-05-02T04:42:42;6.05;;;0.60;;
13477;SDS011;12598;62.382;17.344;2023-05-02T04:43:55;2.80;;;0.63;;
13477;SDS011;12598;62.382;17.344;2023-05-02T04:44:57;3.58;;;0.80;;
13477;SDS011;12598;62.382;17.344;2023-05-02T04:45:59;0.82;;;0.50;;
13477;SDS011;12598;62.382;17.344;2023-05-02T04:47:05;0.88;;;0.40;;
13477;SDS011;12598;62.382;17.344;2023-05-02T04:48:07;2.33;;;0.50;;
13477;SDS011;12598;62.382;17.344;2023-05-02T04:49:09;3.35;;;0.40;;
13477;SDS011;12598;62.382;17.344;2023-05-02T04:50:12;5.35;;;0.60;;
13477;SDS011;12598;62.382;17.344;2023-05-02T04:51:13;5.35;;;0.47;;
13477;SDS011;12598;62.382;17.344;2023-05-02T04:52:20;3.72;;;0.70;;
13477;SDS011;12598;62.382;17.344;2023-05-02T04:53:22;3.65;;;0.50;;
13477;SDS011;12598;62.382;17.344;2023-05-02T04:54:24;3.72;;;0.85;;
13477;SDS011;12598;62.382;17.344;2023-05-02T04:55:26;4.05;;;0.60;;
13477;SDS011;12598;62.382;17.344;2023-05-02T04:56:28;4.63;;;0.50;;
13477;SDS011;12598;62.382;17.344;2023-05-02T04:57:30;3.35;;;0.50;;
13477;SDS011;12598;62.382;17.344;2023-05-02T04:58:34;2.60;;;0.60;;
13477;SDS011;12598;62.382;17.344;2023-05-02T04:59:39;10.45;;;0.85;;
13477;SDS011;12598;62.382;17.344;2023-05-02T05:00:41;4.90;;;0.70;;
13477;SDS011;12598;62.382;17.344;2023-05-02T05:01:42;1.48;;;0.60;;
13477;SDS011;12598;62.382;17.344;2023-05-02T05:02:45;3.72;;;0.80;;
13477;SDS011;12598;62.382;17.344;2023-05-02T05:03:48;2.95;;;0.65;;
13477;SDS011;12598;62.382;17.344;2023-05-02T05:04:52;4.70;;;0.85;;
13477;SDS011;12598;62.382;17.344;2023-05-02T05:05:54;7.38;;;1.40;;
13477;SDS011;12598;62.382;17.344;2023-05-02T05:06:57;4.35;;;0.77;;
13477;SDS011;12598;62.382;17.344;2023-05-02T05:08:01;3.63;;;0.80;;
13477;SDS011;12598;62.382;17.344;2023-05-02T05:09:06;2.97;;;0.77;;
13477;SDS011;12598;62.382;17.344;2023-05-02T05:10:09;6.72;;;1.08;;
13477;SDS011;12598;62.382;17.344;2023-05-02T05:11:18;4.03;;;0.80;;
13477;SDS011;12598;62.382;17.344;2023-05-02T05:12:20;3.30;;;0.70;;
13477;SDS011;12598;62.382;17.344;2023-05-02T05:13:22;4.13;;;0.60;;
13477;SDS011;12598;62.382;17.344;2023-05-02T05:14:24;4.05;;;0.50;;
13477;SDS011;12598;62.382;17.344;2023-05-02T05:15:28;2.08;;;0.47;;
13477;SDS011;12598;62.382;17.344;2023-05-02T05:16:33;7.00;;;1.20;;
13477;SDS011;12598;62.382;17.344;2023-05-02T05:17:36;15.88;;;1.98;;
13477;SDS011;12598;62.382;17.344;2023-05-02T05:18:38;10.23;;;1.40;;
13477;SDS011;12598;62.382;17.344;2023-05-02T05:19:46;7.60;;;0.85;;
13477;SDS011;12598;62.382;17.344;2023-05-02T05:20:47;8.57;;;1.05;;
13477;SDS011;12598;62.382;17.344;2023-05-02T05:21:49;7.22;;;0.93;;
13477;SDS011;12598;62.382;17.344;2023-05-02T05:22:53;4.90;;;0.90;;
13477;SDS011;12598;62.382;17.344;2023-05-02T05:23:55;3.50;;;0.85;;
13477;SDS011;12598;62.382;17.344;2023-05-02T05:25:01;7.53;;;0.80;;
13477;SDS011;12598;62.382;17.344;2023-05-02T05:26:08;7.35;;;1.00;;
13477;SDS011;12598;62.382;17.344;2023-05-02T05:27:13;9.30;;;1.15;;
13477;SDS011;12598;62.382;17.344;2023-05-02T05:28:15;8.52;;;1.50;;
13477;SDS011;12598;62.382;17.344;2023-05-02T05:29:19;9.45;;;0.98;;
13477;SDS011;12598;62.382;17.344;2023-05-02T05:30:21;15.13;;;1.50;;
13477;SDS011;12598;62.382;17.344;2023-05-02T05:31:23;8.45;;;1.15;;
13477;SDS011;12598;62.382;17.344;2023-05-02T05:32:28;5.80;;;1.08;;
13477;SDS011;12598;62.382;17.344;2023-05-02T05:33:30;4.57;;;1.05;;
13477;SDS011;12598;62.382;17.344;2023-05-02T05:34:33;6.85;;;1.25;;
13477;SDS011;12598;62.382;17.344;2023-05-02T05:35:35;8.75;;;1.13;;
13477;SDS011;12598;62.382;17.344;2023-05-02T05:36:38;14.38;;;1.52;;
13477;SDS011;12598;62.382;17.344;2023-05-02T05:37:40;9.30;;;0.95;;
13477;SDS011;12598;62.382;17.344;2023-05-02T05:38:45;5.47;;;0.85;;
13477;SDS011;12598;62.382;17.344;2023-05-02T05:39:47;4.22;;;1.10;;
13477;SDS011;12598;62.382;17.344;2023-05-02T05:40:49;8.55;;;1.40;;
13477;SDS011;12598;62.382;17.344;2023-05-02T05:41:52;10.95;;;1.60;;
13477;SDS011;12598;62.382;17.344;2023-05-02T05:42:56;11.05;;;1.40;;
13477;SDS011;12598;62.382;17.344;2023-05-02T05:44:02;4.35;;;1.27;;
13477;SDS011;12598;62.382;17.344;2023-05-02T05:45:05;7.40;;;1.10;;
13477;SDS011;12598;62.382;17.344;2023-05-02T05:46:07;9.10;;;1.30;;
13477;SDS011;12598;62.382;17.344;2023-05-02T05:47:11;9.07;;;1.80;;
13477;SDS011;12598;62.382;17.344;2023-05-02T05:48:13;8.10;;;1.15;;
13477;SDS011;12598;62.382;17.344;2023-05-02T05:49:18;8.68;;;1.00;;
13477;SDS011;12598;62.382;17.344;2023-05-02T05:50:22;12.40;;;1.42;;
13477;SDS011;12598;62.382;17.344;2023-05-02T05:51:24;9.13;;;1.52;;
13477;SDS011;12598;62.382;17.344;2023-05-02T05:52:30;9.45;;;1.23;;
13477;SDS011;12598;62.382;17.344;2023-05-02T05:53:34;8.65;;;1.25;;
13477;SDS011;12598;62.382;17.344;2023-05-02T05:54:38;6.35;;;0.88;;
13477;SDS011;12598;62.382;17.344;2023-05-02T05:55:40;6.68;;;1.50;;
13477;SDS011;12598;62.382;17.344;2023-05-02T05:56:43;6.40;;;1.40;;
13477;SDS011;12598;62.382;17.344;2023-05-02T05:57:49;8.27;;;1.10;;
13477;SDS011;12598;62.382;17.344;2023-05-02T05:58:52;13.60;;;1.83;;
13477;SDS011;12598;62.382;17.344;2023-05-02T05:59:55;12.18;;;1.70;;
13477;SDS011;12598;62.382;17.344;2023-05-02T06:00:57;15.45;;;1.63;;
13477;SDS011;12598;62.382;17.344;2023-05-02T06:01:59;16.05;;;1.67;;
13477;SDS011;12598;62.382;17.344;2023-05-02T06:03:01;14.15;;;1.30;;
13477;SDS011;12598;62.382;17.344;2023-05-02T06:04:06;9.50;;;1.65;;
13477;SDS011;12598;62.382;17.344;2023-05-02T06:05:11;10.07;;;1.33;;
13477;SDS011;12598;62.382;17.344;2023-05-02T06:06:13;12.93;;;1.77;;
13477;SDS011;12598;62.382;17.344;2023-05-02T06:07:15;6.75;;;1.30;;
13477;SDS011;12598;62.382;17.344;2023-05-02T06:08:18;6.80;;;1.25;;
13477;SDS011;12598;62.382;17.344;2023-05-02T06:09:21;6.28;;;1.45;;
13477;SDS011;12598;62.382;17.344;2023-05-02T06:10:23;10.23;;;1.20;;
13477;SDS011;12598;62.382;17.344;2023-05-02T06:11:26;6.90;;;1.45;;
13477;SDS011;12598;62.382;17.344;2023-05-02T06:12:29;5.97;;;1.00;;
13477;SDS011;12598;62.382;17.344;2023-05-02T06:13:31;10.70;;;1.15;;
13477;SDS011;12598;62.382;17.344;2023-05-02T06:14:33;5.72;;;1.35;;
13477;SDS011;12598;62.382;17.344;2023-05-02T06:15:35;5.10;;;1.00;;
13477;SDS011;12598;62.382;17.344;2023-05-02T06:16:39;5.72;;;0.90;;
13477;SDS011;12598;62.382;17.344;2023-05-02T06:17:41;12.18;;;1.35;;
13477;SDS011;12598;62.382;17.344;2023-05-02T06:18:43;5.28;;;0.82;;
13477;SDS011;12598;62.382;17.344;2023-05-02T06:19:47;2.40;;;0.90;;
13477;SDS011;12598;62.382;17.344;2023-05-02T06:20:49;6.43;;;0.90;;
13477;SDS011;12598;62.382;17.344;2023-05-02T06:21:51;6.53;;;0.82;;
13477;SDS011;12598;62.382;17.344;2023-05-02T06:22:53;5.60;;;0.82;;
13477;SDS011;12598;62.382;17.344;2023-05-02T06:23:54;6.78;;;1.17;;
13477;SDS011;12598;62.382;17.344;2023-05-02T06:24:56;9.73;;;0.80;;
13477;SDS011;12598;62.382;17.344;2023-05-02T06:25:58;7.32;;;1.05;;
13477;SDS011;12598;62.382;17.344;2023-05-02T06:27:01;7.80;;;1.10;;
13477;SDS011;12598;62.382;17.344;2023-05-02T06:28:03;9.07;;;1.05;;
13477;SDS011;12598;62.382;17.344;2023-05-02T06:29:05;2.95;;;0.63;;
13477;SDS011;12598;62.382;17.344;2023-05-02T06:30:07;5.30;;;0.88;;
13477;SDS011;12598;62.382;17.344;2023-05-02T06:31:09;2.38;;;0.52;;
13477;SDS011;12598;62.382;17.344;2023-05-02T06:32:11;7.22;;;1.35;;
13477;SDS011;12598;62.382;17.344;2023-05-02T06:33:13;2.67;;;0.50;;
13477;SDS011;12598;62.382;17.344;2023-05-02T06:34:15;6.20;;;0.77;;
13477;SDS011;12598;62.382;17.344;2023-05-02T06:35:17;3.75;;;0.75;;
13477;SDS011;12598;62.382;17.344;2023-05-02T06:36:19;5.13;;;1.05;;